createdAt,value
2023-03-08T00:50:03.251Z,28.91
2023-03-08T00:52:56.125Z,28.93
2023-03-08T00:58:03.373Z,28.96
2023-03-08T01:00:36.778Z,28.93
2023-03-08T01:03:12.142Z,28.94
2023-03-08T01:05:46.637Z,28.99
2023-03-08T01:13:39.457Z,29.03
2023-03-08T01:21:39.408Z,29.08
2023-03-08T01:24:10.885Z,29.07
2023-03-08T01:29:19.751Z,29.10
2023-03-08T01:31:51.199Z,29.15
2023-03-08T01:34:18.810Z,29.14
2023-03-08T01:36:47.539Z,29.15
2023-03-08T01:44:34.810Z,29.18
2023-03-08T02:22:06.748Z,29.32
2023-03-08T02:24:35.433Z,29.35
2023-03-08T02:29:44.852Z,29.38
2023-03-08T02:32:12.142Z,29.38
2023-03-08T02:34:39.438Z,29.38
2023-03-08T02:37:06.770Z,29.42
2023-03-08T02:39:34.033Z,29.44
2023-03-08T02:42:01.340Z,29.45
2023-03-08T02:44:28.733Z,29.47
2023-03-08T02:46:55.992Z,29.48
2023-03-08T02:49:23.264Z,29.50
2023-03-08T02:51:50.627Z,29.51
2023-03-08T02:54:17.926Z,29.54
2023-03-08T02:56:45.199Z,29.54
2023-03-08T02:59:12.556Z,29.59
2023-03-08T03:01:39.943Z,29.58
2023-03-08T03:04:12.275Z,29.62
2023-03-08T03:06:39.761Z,29.64
2023-03-08T03:09:07.179Z,29.65
2023-03-08T03:11:34.453Z,29.66
2023-03-08T03:14:02.845Z,29.69
2023-03-08T03:16:30.205Z,29.72
2023-03-08T03:18:57.452Z,29.72
2023-03-08T03:21:24.715Z,29.76
2023-03-08T03:23:52.088Z,29.79
2023-03-08T03:26:19.385Z,29.81
2023-03-08T03:28:46.655Z,29.81
2023-03-08T03:31:14.036Z,29.82
2023-03-08T03:33:41.382Z,29.86
2023-03-08T03:36:08.974Z,29.86
2023-03-08T03:38:36.330Z,29.90
2023-03-08T03:41:03.601Z,29.89
2023-03-08T03:43:30.876Z,29.95
2023-03-08T03:45:58.231Z,29.96
2023-03-08T03:48:25.582Z,29.98
2023-03-08T03:50:52.839Z,29.99
2023-03-08T03:53:20.157Z,30.02
2023-03-08T03:55:47.418Z,30.06
2023-03-08T03:58:14.732Z,30.10
2023-03-08T04:00:50.173Z,30.10
2023-03-08T04:03:17.608Z,30.13
2023-03-08T04:05:45.688Z,30.13
2023-03-08T04:10:56.506Z,30.20
2023-03-08T04:16:00.442Z,30.25
2023-03-08T04:18:30.013Z,30.26
2023-03-08T04:21:00.308Z,30.27
2023-03-08T04:23:29.428Z,30.30
2023-03-08T04:31:25.260Z,30.37
2023-03-08T04:33:55.358Z,30.41
2023-03-08T04:36:24.610Z,30.43
2023-03-08T04:38:57.715Z,30.43
2023-03-08T04:41:26.867Z,30.46
2023-03-08T04:43:55.323Z,30.50
2023-03-08T04:49:05.690Z,30.53
2023-03-08T04:51:32.981Z,30.55
2023-03-08T04:54:02.140Z,30.59
2023-03-08T04:56:29.590Z,30.59
2023-03-08T04:59:00.650Z,30.61
2023-03-08T05:01:28.459Z,30.63
2023-03-08T05:03:58.769Z,30.66
2023-03-08T05:06:29.430Z,30.67
2023-03-08T05:08:56.929Z,30.69
2023-03-08T05:11:24.254Z,30.73
2023-03-08T05:13:52.342Z,30.74
2023-03-08T05:16:25.670Z,30.74
2023-03-08T05:18:53.835Z,30.76
2023-03-08T05:21:21.790Z,30.79
2023-03-08T05:23:52.425Z,30.81
2023-03-08T05:26:20.843Z,30.81
2023-03-08T05:31:23.722Z,30.87
2023-03-08T05:33:51.807Z,30.87
2023-03-08T05:36:19.143Z,30.90
2023-03-08T05:38:46.682Z,30.94
2023-03-08T05:43:56.691Z,30.94
2023-03-08T05:46:26.142Z,30.98
2023-03-08T05:48:54.016Z,31.00
2023-03-08T05:51:21.478Z,31.06
2023-03-08T05:53:48.790Z,31.07
2023-03-08T05:56:30.320Z,31.07
2023-03-08T05:59:04.764Z,31.07
2023-03-08T06:01:32.078Z,31.10
2023-03-08T06:03:59.495Z,31.10
2023-03-08T06:06:26.761Z,31.11
2023-03-08T06:08:54.092Z,31.12
2023-03-08T06:11:21.457Z,31.15
2023-03-08T06:13:49.371Z,31.18
2023-03-08T06:16:16.696Z,31.17
2023-03-08T06:18:44.098Z,31.18
2023-03-08T06:21:11.357Z,31.21
2023-03-08T06:23:38.613Z,31.25
2023-03-08T06:26:05.911Z,31.25
2023-03-08T06:28:33.171Z,31.28
2023-03-08T06:31:00.610Z,31.30
2023-03-08T06:33:28.039Z,31.28
2023-03-08T06:35:55.331Z,31.32
2023-03-08T06:38:34.263Z,31.31
2023-03-08T06:41:01.614Z,31.34
2023-03-08T06:43:29.513Z,31.37
2023-03-08T06:45:58.598Z,31.37
2023-03-08T06:48:27.247Z,31.38
2023-03-08T06:50:57.376Z,31.41
2023-03-08T06:53:24.680Z,31.41
2023-03-08T06:55:55.007Z,31.42
2023-03-08T06:58:22.324Z,31.43
2023-03-08T07:00:50.604Z,31.43
2023-03-08T07:03:18.791Z,31.43
2023-03-08T07:05:46.085Z,31.45
2023-03-08T07:08:13.456Z,31.46
2023-03-08T07:10:41.567Z,31.46
2023-03-08T07:13:10.953Z,31.51
2023-03-08T07:15:38.331Z,31.48
2023-03-08T07:18:06.564Z,31.51
2023-03-08T07:20:34.211Z,31.51
2023-03-08T07:23:02.561Z,31.52
2023-03-08T07:25:30.006Z,31.51
2023-03-08T07:27:57.815Z,31.57
2023-03-08T07:30:34.676Z,31.55
2023-03-08T07:33:02.126Z,31.57
2023-03-08T07:35:30.166Z,31.57
2023-03-08T07:38:03.911Z,31.59
2023-03-08T07:40:31.364Z,31.59
2023-03-08T07:42:58.832Z,31.61
2023-03-08T07:45:33.682Z,31.61
2023-03-08T07:48:01.127Z,31.63
2023-03-08T07:50:28.620Z,31.62
2023-03-08T07:52:55.933Z,31.63
2023-03-08T07:55:23.279Z,31.66
2023-03-08T07:58:00.515Z,31.68
2023-03-08T08:00:35.167Z,31.66
2023-03-08T08:03:06.108Z,31.68
2023-03-08T08:05:37.849Z,31.68
2023-03-08T08:08:05.180Z,31.69
2023-03-08T08:10:43.705Z,31.71
2023-03-08T08:13:11.106Z,31.72
2023-03-08T08:15:38.499Z,31.75
2023-03-08T08:18:09.191Z,31.72
2023-03-08T08:20:36.932Z,31.72
2023-03-08T08:23:04.256Z,31.73
2023-03-08T08:25:31.571Z,31.75
2023-03-08T08:27:58.972Z,31.75
2023-03-08T08:30:29.488Z,31.78
2023-03-08T08:32:57.841Z,31.76
2023-03-08T08:35:40.857Z,31.76
2023-03-08T08:38:09.659Z,31.76
2023-03-08T08:43:33.043Z,31.75
2023-03-08T08:46:07.609Z,31.78
2023-03-08T08:48:38.995Z,31.79
2023-03-08T08:51:06.650Z,31.78
2023-03-08T08:53:34.049Z,31.78
2023-03-08T08:56:01.392Z,31.81
2023-03-08T08:58:32.564Z,31.79
2023-03-08T09:01:09.475Z,31.81
2023-03-08T09:03:36.855Z,31.79
2023-03-08T09:06:04.154Z,31.82
2023-03-08T09:08:31.492Z,31.81
2023-03-08T09:10:58.928Z,31.81
2023-03-08T09:16:10.817Z,31.81
2023-03-08T09:18:39.394Z,31.82
2023-03-08T09:21:06.752Z,31.82
2023-03-08T09:23:34.091Z,31.78
2023-03-08T09:26:02.652Z,31.78
2023-03-08T09:28:32.149Z,31.81
2023-03-08T09:30:59.986Z,31.79
2023-03-08T09:33:36.208Z,31.78
2023-03-08T09:36:03.696Z,31.79
2023-03-08T09:38:31.007Z,31.75
2023-03-08T09:40:58.411Z,31.78
2023-03-08T09:43:32.489Z,31.76
2023-03-08T09:45:59.891Z,31.75
2023-03-08T09:48:27.341Z,31.75
2023-03-08T09:50:54.692Z,31.73
2023-03-08T09:53:22.093Z,31.71
2023-03-08T09:55:54.487Z,31.69
2023-03-08T09:58:25.347Z,31.71
2023-03-08T10:03:43.838Z,31.68
2023-03-08T10:06:11.288Z,31.65
2023-03-08T10:08:38.642Z,31.63
2023-03-08T10:11:06.072Z,31.61
2023-03-08T10:13:33.499Z,31.61
2023-03-08T10:16:01.497Z,31.59
2023-03-08T10:18:28.795Z,31.57
2023-03-08T10:20:56.236Z,31.53
2023-03-08T10:23:23.522Z,31.52
2023-03-08T10:25:50.859Z,31.52
2023-03-08T10:28:18.277Z,31.51
2023-03-08T10:30:48.322Z,31.51
2023-03-08T10:33:15.667Z,31.46
2023-03-08T10:35:43.051Z,31.45
2023-03-08T10:38:10.356Z,31.48
2023-03-08T10:40:41.002Z,31.45
2023-03-08T10:43:08.530Z,31.43
2023-03-08T10:45:35.853Z,31.43
2023-03-08T10:48:04.205Z,31.41
2023-03-08T10:50:36.804Z,31.41
2023-03-08T10:53:04.321Z,31.39
2023-03-08T10:55:32.876Z,31.38
2023-03-08T10:58:00.180Z,31.38
2023-03-08T11:00:34.664Z,31.38
2023-03-08T11:03:02.018Z,31.38
2023-03-08T11:05:29.306Z,31.37
2023-03-08T11:07:56.646Z,31.35
2023-03-08T11:10:24.219Z,31.38
2023-03-08T11:12:53.442Z,31.35
2023-03-08T11:20:43.200Z,31.34
2023-03-08T11:23:10.665Z,31.32
2023-03-08T11:25:38.016Z,31.32
2023-03-08T11:28:05.341Z,31.32
2023-03-08T11:30:32.815Z,31.27
2023-03-08T11:33:00.334Z,31.30
2023-03-08T11:35:27.830Z,31.31
2023-03-08T11:37:56.572Z,31.27
2023-03-08T11:40:23.868Z,31.25
2023-03-08T11:43:08.576Z,31.25
2023-03-08T11:45:36.030Z,31.22
2023-03-08T11:48:03.339Z,31.22
2023-03-08T11:55:45.859Z,31.21
2023-03-08T12:00:48.483Z,31.17
2023-03-08T12:03:15.836Z,31.15
2023-03-08T12:05:49.635Z,31.15
2023-03-08T12:08:17.248Z,31.14
2023-03-08T12:13:25.273Z,31.12
2023-03-08T12:15:52.608Z,31.10
2023-03-08T12:18:27.146Z,31.10
2023-03-08T12:20:58.510Z,31.08
2023-03-08T12:23:28.049Z,31.06
2023-03-08T12:25:58.862Z,31.04
2023-03-08T12:28:28.843Z,31.02
2023-03-08T12:30:56.241Z,31.04
2023-03-08T12:33:23.702Z,31.00
2023-03-08T12:35:51.170Z,31.01
2023-03-08T12:38:27.448Z,30.95
2023-03-08T12:40:54.900Z,30.94
2023-03-08T12:43:22.362Z,30.92
2023-03-08T12:45:49.665Z,30.92
2023-03-08T12:48:17.072Z,30.94
2023-03-08T12:50:44.537Z,30.92
2023-03-08T12:53:11.874Z,30.90
2023-03-08T12:55:39.147Z,30.88
2023-03-08T12:58:06.511Z,30.88
2023-03-08T13:00:33.827Z,30.84
2023-03-08T13:03:03.200Z,30.81
2023-03-08T13:05:33.369Z,30.83
2023-03-08T13:08:00.673Z,30.83
2023-03-08T13:10:27.949Z,30.80
2023-03-08T13:12:55.310Z,30.80
2023-03-08T13:15:22.901Z,30.79
2023-03-08T13:17:50.188Z,30.76
2023-03-08T13:20:17.595Z,30.76
2023-03-08T13:22:44.949Z,30.74
2023-03-08T13:25:12.291Z,30.74
2023-03-08T13:27:39.864Z,30.71
2023-03-08T13:30:07.236Z,30.70
2023-03-08T13:32:34.746Z,30.70
2023-03-08T13:35:02.250Z,30.66
2023-03-08T13:40:04.896Z,30.66
2023-03-08T13:42:32.200Z,30.63
2023-03-08T13:44:59.481Z,30.63
2023-03-08T13:47:28.212Z,30.60
2023-03-08T13:49:56.648Z,30.60
2023-03-08T13:52:23.985Z,30.59
2023-03-08T13:54:51.326Z,30.57
2023-03-08T13:57:18.679Z,30.57
2023-03-08T13:59:46.294Z,30.56
2023-03-08T14:02:13.798Z,30.55
2023-03-08T14:04:41.198Z,30.53
2023-03-08T14:07:08.649Z,30.53
2023-03-08T14:09:39.811Z,30.52
2023-03-08T14:12:07.216Z,30.49
2023-03-08T14:14:34.603Z,30.50
2023-03-08T14:17:02.155Z,30.50
2023-03-08T14:19:31.020Z,30.47
2023-03-08T14:21:58.389Z,30.47
2023-03-08T14:24:25.724Z,30.46
2023-03-08T14:26:53.073Z,30.43
2023-03-08T14:48:21.784Z,30.33
2023-03-08T14:53:18.844Z,30.30
2023-03-08T14:55:54.765Z,30.32
2023-03-08T14:58:22.939Z,30.29
2023-03-08T15:11:38.743Z,30.22
2023-03-08T15:16:43.498Z,30.20
2023-03-08T15:19:11.354Z,30.19
2023-03-08T15:21:38.692Z,30.17
2023-03-08T15:24:06.233Z,30.17
2023-03-08T15:26:33.566Z,30.16
2023-03-08T15:29:00.960Z,30.17
2023-03-08T15:31:28.356Z,30.15
2023-03-08T15:33:57.282Z,30.15
2023-03-08T15:36:27.153Z,30.13
2023-03-08T15:41:37.080Z,30.12
2023-03-08T15:44:06.547Z,30.10
2023-03-08T15:46:33.901Z,30.10
2023-03-08T15:49:12.852Z,30.10
2023-03-08T15:51:41.245Z,30.08
2023-03-08T15:54:12.542Z,30.04
2023-03-08T16:04:38.828Z,30.02
2023-03-08T16:07:06.215Z,30.01
2023-03-08T16:09:33.556Z,30.02
2023-03-08T16:12:01.000Z,30.02
2023-03-08T16:14:51.509Z,29.99
2023-03-08T16:23:03.330Z,29.98
